Scroll down
FLIGHT INFORMATION
Nippon Cargo Airlines

NCA9817

At Arrival Gate

ZSPD
 RCTP
DATE: 2022-08-17
GATE:  -
GATE DEPARTURE: 13:41
TAKEOFF: 13:46
DATE: 2022-08-18
GATE:  -
LANDING: 15:02
GATE ARRIVAL: 15:05
FLIGHT DATA
Crew: 
Speed: 
932 kph
Altitude: 
38,112 ft
Stage Length: 
676.6 km
Block Time: 
1.4 hrs
Flight Time: 
1.3 hrs
Fuel Used: 
11,637 kg
Cleared Route: ZSPD MIGOL KASKA WASPY BERBA FITCH BESTO COPRA BAKER RCTP
TRACK DATA
50,000 ft 1,000 kts
AIRCRAFT INFO AND CUMULATIVE STATS
Aircraft Type: 
B744F
Registration: 
SELCAL: 
HPAE
MSN/LN: 
34283 / 1384
Operator: 
Total Flights: 
2
Total Block Time: 
4.7 hrs
Total Flight Time: 
4.3 hrs
Total Fuel Used: 
48,939 kg
DATALINK LOG | Newest first | Current as of: 2022-12-07 06:56:54
LABEL SEQUENCE CONTENT Dn/Up
QC065615:02▼ Dn
2U4636RCTP 172130Z 23002KT 9999 FEW012 SCT016 BKN040 28/26 Q1005 NOSIG RMK A2970▲ Up
2S4636RCTP▼ Dn
QB494713:46▼ Dn
2U3636RCTP 171900Z 17004KT 9999 FEW012 SCT018 BKN030 29/27 Q1005 NOSIG RMK A2970▲ Up
2U3636ZSPD 171930Z 10002MPS 9999 FEW009 28/27 Q1006 NOSIG▲ Up
2U3635VHHH 171930Z 10006KT 9999 -SHRA FEW010CB SCT015 27/25 Q1005 TEMPO 4000 SHRA FEW010CB SCT020▲ Up
2S3635ZSPD RCTP VHHH▼ Dn
A33534CLEARED TO RCTP VIA MIG81D MIGOL B591 KASKA L2 BERBA B591 BAKER BAKE1A. SQUAWK 5020.▲ Up
B33534ZSPD RCTP KZ9817 A ▼ Dn
Q03433[LINK ACK]▲ Up
Q03433[LINK TEST]▼ Dn


AIRCRAFT HISTORY
FLIGHT DATE FLIGHT NO. ORIGIN DESTINATION CLEARED ROUTE BLOCK TIME FLIGHT TIME FUEL USED PILOT
2022-08-17NCA9817ZSPD RCTP ZSPD MIGOL KASKA WASPY BERBA FITCH BESTO COPRA BAKER RCTP1.4 hrs1.3 hrs25,655 lbAllan Burek
2022-01-29NCA129RJAA ZSPD RJAA ASPEN A6R11 A6R13 A6R14 TETRA HME SZE GAKKI KIKOL MORIZ KOMAK KCC BIWWA ADGUN MIDER SANDA HYOGO ASANO OLIVE BIZEN PIONE DANGO WASYU BINGO BAMBO ONDOC HATIA BALIE CHINU ISAKY FUE POTET ONIKU NIRAT PONIK SADLI LAMEN AKARA DUMET ZSPD3.3 hrs3.1 hrs82,237 lbMichael Roth